Circle Line Brooklyn — WDE8160 — position and weather

sailwx.info

Track history (hours):
 
Tides and Currents Weather Stations Pressure Air Temp Water Temp Dewpoint Dewpoint Depression Visibility Wind Speed Wind Dir Waves Ship Positions

Circle Line Brooklyn

Owner: Circle Line Sight Seeing Yachts Inc., New York, NY. More information available from US FCC via Universal Licensing System and Coast Guard Vessel Documentation Center.

Last reported at 2016-Jul-26 15:07 UTC. Time now 2016-Jul-26 16:02 UTC.
Position N 40°46' W 073°57'.

MMSI: 367402250.

Date/timePositionNaut miles runAvg speedWind from/ knotsBaromVisibWave heightAir tempDewpointWater temp
2016-Jul-26 15:07N 40°46' W 073°57'610.5
2016-Jul-26 14:33N 40°41' W 074°03'5 4.9
2016-Jul-26 13:34N 40°46' W 074°00'0 0.0
2016-Jul-25 20:33N 40°46' W 074°00'5 5.0
2016-Jul-25 19:33N 40°41' W 074°03'5 4.8
2016-Jul-25 18:31N 40°46' W 074°00'3 3.5
2016-Jul-25 17:33N 40°43' W 073°59'3 3.3
2016-Jul-25 16:33N 40°46' W 074°00'0 0.0
2016-Jul-25 15:33N 40°46' W 074°00'0 0.0
2016-Jul-25 14:33N 40°46' W 074°00'0 0.0
2016-Jul-25 03:04N 40°46' W 074°00'1 0.7
2016-Jul-25 02:15N 40°46' W 074°00'4 5.7
2016-Jul-25 01:33N 40°42' W 073°60'1 0.9
2016-Jul-25 00:33N 40°42' W 074°00'4 4.1
2016-Jul-24 23:33N 40°46' W 074°00'0 0.0
2016-Jul-24 22:33N 40°46' W 074°00'0 0.0
2016-Jul-24 21:33N 40°46' W 074°00'2 1.3
2016-Jul-24 20:20N 40°44' W 074°01'3 4.2
2016-Jul-24 19:33N 40°41' W 074°03'5 3.7
2016-Jul-24 18:14N 40°46' W 074°00'3 5.0
2016-Jul-24 17:33N 40°42' W 073°59'2 1.1
2016-Jul-24 15:24N 40°44' W 074°01'0 0.0
2016-Jul-24 03:33N 40°45' W 074°01'3 3.1
2016-Jul-24 02:33N 40°46' W 073°57'5 5.2
2016-Jul-24 01:33N 40°42' W 074°01'4 4.3
2016-Jul-24 00:33N 40°46' W 074°00'0 0.0
2016-Jul-23 23:32N 40°46' W 074°00'0 0.0
2016-Jul-23 22:32N 40°46' W 074°00'0 0.0
2016-Jul-23 21:32N 40°46' W 074°00'0 0.0
2016-Jul-23 20:32N 40°46' W 074°00'5 5.1
2016-Jul-23 19:34N 40°41' W 074°01'5 5.0
2016-Jul-23 18:34N 40°46' W 074°00'0 0.0
2016-Jul-23 17:32N 40°46' W 074°00'0 0.0
2016-Jul-23 16:32N 40°46' W 074°00'0 0.0
2016-Jul-23 15:32N 40°46' W 074°00'0 0.0
2016-Jul-23 14:32N 40°46' W 074°00'0 0.0
2016-Jul-23 04:31N 40°46' W 074°00'4 4.0
2016-Jul-23 03:33N 40°42' W 074°01'2 2.0
2016-Jul-23 02:33N 40°42' W 073°59'3 3.3
2016-Jul-23 01:33N 40°45' W 074°01'1 0.8
2016-Jul-23 00:31N 40°46' W 074°00'0 0.0
2016-Jul-22 23:31N 40°46' W 074°00'0 0.0
2016-Jul-22 22:31N 40°46' W 074°00'0 0.0
2016-Jul-22 21:31N 40°46' W 074°00'0 0.0
2016-Jul-22 20:33N 40°46' W 074°00'5 4.7
2016-Jul-22 19:34N 40°41' W 074°02'5 4.5
2016-Jul-22 18:31N 40°46' W 074°00'3 2.7
2016-Jul-22 17:33N 40°44' W 073°58'3 2.5
2016-Jul-22 16:33N 40°46' W 074°00'0 0.0
2016-Jul-22 15:34N 40°46' W 074°00'0 0.0
2016-Jul-22 14:34N 40°46' W 074°00'0 0.0
2016-Jul-22 02:23N 40°46' W 074°00'2 2.6
2016-Jul-22 01:33N 40°48' W 073°59'7 6.6
2016-Jul-22 00:33N 40°42' W 074°02'4 3.8
2016-Jul-21 23:34N 40°44' W 073°58'3 2.4
2016-Jul-21 22:30N 40°46' W 074°00'0 0.0
2016-Jul-21 21:33N 40°46' W 074°00'0 0.0
2016-Jul-21 20:33N 40°46' W 074°00'0 0.0
2016-Jul-21 19:33N 40°46' W 074°00'0 0.0
2016-Jul-21 18:33N 40°46' W 074°00'2 1.6
2016-Jul-21 17:14N 40°45' W 073°57'6 8.5
2016-Jul-21 16:34N 40°41' W 074°03'5 4.8
2016-Jul-21 15:33N 40°46' W 074°00'0 0.0
2016-Jul-19 20:31N 40°46' W 074°00'4 4.3
2016-Jul-19 19:34N 40°42' W 074°01'4 4.0
2016-Jul-19 18:32N 40°46' W 074°00'3 3.4
2016-Jul-19 17:34N 40°42' W 073°60'3 3.4
2016-Jul-19 16:33N 40°46' W 074°00'0 0.0
2016-Jul-19 15:33N 40°46' W 074°00'0 0.0
2016-Jul-19 14:33N 40°46' W 074°00'4 0.3
2016-Jul-19 00:33N 40°42' W 074°02'1 1.1
2016-Jul-18 23:34N 40°42' W 074°00'4 3.8
2016-Jul-18 22:31N 40°46' W 074°00'0 0.0
2016-Jul-18 21:31N 40°46' W 074°00'0 0.0
2016-Jul-18 20:33N 40°46' W 074°00'4 2.2
2016-Jul-18 18:33N 40°42' W 074°02'4 4.4
2016-Jul-18 17:33N 40°46' W 074°00'0 0.0
2016-Jul-18 16:33N 40°46' W 074°00'2 1.6
2016-Jul-18 15:10N 40°46' W 073°57'6 9.8
2016-Jul-18 14:33N 40°41' W 074°03'5 0.4
2016-Jul-18 02:30N 40°46' W 074°00'3 3.2
2016-Jul-18 01:33N 40°43' W 074°01'1 1.4
2016-Jul-18 00:33N 40°42' W 074°00'4 3.9
2016-Jul-17 23:33N 40°46' W 074°01'0 0.3
2016-Jul-17 22:32N 40°46' W 074°00'0 0.0
2016-Jul-17 21:32N 40°46' W 074°00'0 0.0
2016-Jul-17 20:33N 40°46' W 074°00'5 4.8
2016-Jul-17 19:33N 40°41' W 074°02'3 1.3
2016-Jul-17 17:33N 40°42' W 073°59'3 1.3
2016-Jul-17 15:29N 40°45' W 074°01'1 0.1
2016-Jul-17 03:25N 40°46' W 074°00'2 1.5
2016-Jul-17 02:20N 40°47' W 073°59'6 7.4
2016-Jul-17 01:33N 40°42' W 074°02'2 2.3
2016-Jul-17 00:33N 40°43' W 073°59'3 1.5
2016-Jul-16 22:26N 40°45' W 073°57'3 3.3
2016-Jul-16 21:33N 40°45' W 074°01'1 0.8
2016-Jul-16 20:32N 40°46' W 074°00'0 0.0
2016-Jul-16 19:32N 40°46' W 074°00'0 0.0
2016-Jul-16 18:32N 40°46' W 074°00'0 0.0
2016-Jul-16 17:32N 40°46' W 074°00'0 0.0
2016-Jul-16 16:32N 40°46' W 074°00'5 5.0
2016-Jul-16 15:34N 40°41' W 074°01'  
Track history (hours):
 
Tides and Currents Weather Stations Pressure Air Temp Water Temp Dewpoint Dewpoint Depression Visibility Wind Speed Wind Dir Waves Ship Positions

Circle Line Brooklyn

Owner: Circle Line Sight Seeing Yachts Inc., New York, NY. More information available from US FCC via Universal Licensing System and Coast Guard Vessel Documentation Center.

Last reported at 2016-Jul-26 15:07 UTC. Time now 2016-Jul-26 16:02 UTC.
Position N 40°46' W 073°57'.

MMSI: 367402250.

Date/timePositionNaut miles runAvg speedWind from/ knotsBaromVisibWave heightAir tempDewpointWater temp
2016-Jul-26 15:07N 40°46' W 073°57'610.5
2016-Jul-26 14:33N 40°41' W 074°03'5 4.9
2016-Jul-26 13:34N 40°46' W 074°00'0 0.0
2016-Jul-25 20:33N 40°46' W 074°00'5 5.0
2016-Jul-25 19:33N 40°41' W 074°03'5 4.8
2016-Jul-25 18:31N 40°46' W 074°00'3 3.5
2016-Jul-25 17:33N 40°43' W 073°59'3 3.3
2016-Jul-25 16:33N 40°46' W 074°00'0 0.0
2016-Jul-25 15:33N 40°46' W 074°00'0 0.0
2016-Jul-25 14:33N 40°46' W 074°00'0 0.0
2016-Jul-25 03:04N 40°46' W 074°00'1 0.7
2016-Jul-25 02:15N 40°46' W 074°00'4 5.7
2016-Jul-25 01:33N 40°42' W 073°60'1 0.9
2016-Jul-25 00:33N 40°42' W 074°00'4 4.1
2016-Jul-24 23:33N 40°46' W 074°00'0 0.0
2016-Jul-24 22:33N 40°46' W 074°00'0 0.0
2016-Jul-24 21:33N 40°46' W 074°00'2 1.3
2016-Jul-24 20:20N 40°44' W 074°01'3 4.2
2016-Jul-24 19:33N 40°41' W 074°03'5 3.7
2016-Jul-24 18:14N 40°46' W 074°00'3 5.0
2016-Jul-24 17:33N 40°42' W 073°59'2 1.1
2016-Jul-24 15:24N 40°44' W 074°01'0 0.0
2016-Jul-24 03:33N 40°45' W 074°01'3 3.1
2016-Jul-24 02:33N 40°46' W 073°57'5 5.2
2016-Jul-24 01:33N 40°42' W 074°01'4 4.3
2016-Jul-24 00:33N 40°46' W 074°00'0 0.0
2016-Jul-23 23:32N 40°46' W 074°00'0 0.0
2016-Jul-23 22:32N 40°46' W 074°00'0 0.0
2016-Jul-23 21:32N 40°46' W 074°00'0 0.0
2016-Jul-23 20:32N 40°46' W 074°00'5 5.1
2016-Jul-23 19:34N 40°41' W 074°01'5 5.0
2016-Jul-23 18:34N 40°46' W 074°00'0 0.0
2016-Jul-23 17:32N 40°46' W 074°00'0 0.0
2016-Jul-23 16:32N 40°46' W 074°00'0 0.0
2016-Jul-23 15:32N 40°46' W 074°00'0 0.0
2016-Jul-23 14:32N 40°46' W 074°00'0 0.0
2016-Jul-23 04:31N 40°46' W 074°00'4 4.0
2016-Jul-23 03:33N 40°42' W 074°01'2 2.0
2016-Jul-23 02:33N 40°42' W 073°59'3 3.3
2016-Jul-23 01:33N 40°45' W 074°01'1 0.8
2016-Jul-23 00:31N 40°46' W 074°00'0 0.0
2016-Jul-22 23:31N 40°46' W 074°00'0 0.0
2016-Jul-22 22:31N 40°46' W 074°00'0 0.0
2016-Jul-22 21:31N 40°46' W 074°00'0 0.0
2016-Jul-22 20:33N 40°46' W 074°00'5 4.7
2016-Jul-22 19:34N 40°41' W 074°02'5 4.5
2016-Jul-22 18:31N 40°46' W 074°00'3 2.7
2016-Jul-22 17:33N 40°44' W 073°58'3 2.5
2016-Jul-22 16:33N 40°46' W 074°00'0 0.0
2016-Jul-22 15:34N 40°46' W 074°00'0 0.0
2016-Jul-22 14:34N 40°46' W 074°00'0 0.0
2016-Jul-22 02:23N 40°46' W 074°00'2 2.6
2016-Jul-22 01:33N 40°48' W 073°59'7 6.6
2016-Jul-22 00:33N 40°42' W 074°02'4 3.8
2016-Jul-21 23:34N 40°44' W 073°58'3 2.4
2016-Jul-21 22:30N 40°46' W 074°00'0 0.0
2016-Jul-21 21:33N 40°46' W 074°00'0 0.0
2016-Jul-21 20:33N 40°46' W 074°00'0 0.0
2016-Jul-21 19:33N 40°46' W 074°00'0 0.0
2016-Jul-21 18:33N 40°46' W 074°00'2 1.6
2016-Jul-21 17:14N 40°45' W 073°57'6 8.5
2016-Jul-21 16:34N 40°41' W 074°03'5 4.8
2016-Jul-21 15:33N 40°46' W 074°00'0 0.0
2016-Jul-19 20:31N 40°46' W 074°00'4 4.3
2016-Jul-19 19:34N 40°42' W 074°01'4 4.0
2016-Jul-19 18:32N 40°46' W 074°00'3 3.4
2016-Jul-19 17:34N 40°42' W 073°60'3 3.4
2016-Jul-19 16:33N 40°46' W 074°00'0 0.0
2016-Jul-19 15:33N 40°46' W 074°00'0 0.0
2016-Jul-19 14:33N 40°46' W 074°00'4 0.3
2016-Jul-19 00:33N 40°42' W 074°02'1 1.1
2016-Jul-18 23:34N 40°42' W 074°00'4 3.8
2016-Jul-18 22:31N 40°46' W 074°00'0 0.0
2016-Jul-18 21:31N 40°46' W 074°00'0 0.0
2016-Jul-18 20:33N 40°46' W 074°00'4 2.2
2016-Jul-18 18:33N 40°42' W 074°02'4 4.4
2016-Jul-18 17:33N 40°46' W 074°00'0 0.0
2016-Jul-18 16:33N 40°46' W 074°00'2 1.6
2016-Jul-18 15:10N 40°46' W 073°57'6 9.8
2016-Jul-18 14:33N 40°41' W 074°03'5 0.4
2016-Jul-18 02:30N 40°46' W 074°00'3 3.2
2016-Jul-18 01:33N 40°43' W 074°01'1 1.4
2016-Jul-18 00:33N 40°42' W 074°00'4 3.9
2016-Jul-17 23:33N 40°46' W 074°01'0 0.3
2016-Jul-17 22:32N 40°46' W 074°00'0 0.0
2016-Jul-17 21:32N 40°46' W 074°00'0 0.0
2016-Jul-17 20:33N 40°46' W 074°00'5 4.8
2016-Jul-17 19:33N 40°41' W 074°02'3 1.3
2016-Jul-17 17:33N 40°42' W 073°59'3 1.3
2016-Jul-17 15:29N 40°45' W 074°01'1 0.1
2016-Jul-17 03:25N 40°46' W 074°00'2 1.5
2016-Jul-17 02:20N 40°47' W 073°59'6 7.4
2016-Jul-17 01:33N 40°42' W 074°02'2 2.3
2016-Jul-17 00:33N 40°43' W 073°59'3 1.5
2016-Jul-16 22:26N 40°45' W 073°57'3 3.3
2016-Jul-16 21:33N 40°45' W 074°01'1 0.8
2016-Jul-16 20:32N 40°46' W 074°00'0 0.0
2016-Jul-16 19:32N 40°46' W 074°00'0 0.0
2016-Jul-16 18:32N 40°46' W 074°00'0 0.0
2016-Jul-16 17:32N 40°46' W 074°00'0 0.0
2016-Jul-16 16:32N 40°46' W 074°00'5 5.0
2016-Jul-16 15:34N 40°41' W 074°01'  

Dump ship's entire track history